Time;durP1;ratioP1;P1;durP2;ratioP2;P2;SDS_P1;SDS_P2;PMS_P1;PMS_P2;Temp;Humidity;BMP_temperature;BMP_pressure;BME280_temperature;BME280_humidity;BME280_pressure;Samples;Min_cycle;Max_cycle;Signal;HPM_P1;HPM_P2
2021/06/21 00:02:23;;;;;;;7.35;5.65;;;;;;;;;;4880800;29;20063;-44
2021/06/21 00:04:49;;;;;;;10.40;4.55;;;;;;;;;;4881292;29;20066;-44
2021/06/21 00:07:14;;;;;;;8.07;4.75;;;;;;;;;;4880908;29;20388;-44
2021/06/21 00:09:40;;;;;;;9.02;4.55;;;;;;;;;;4880831;29;20044;-44
2021/06/21 00:12:07;;;;;;;11.95;4.97;;;;;;;;;;4879557;29;20124;-44
2021/06/21 00:14:33;;;;;;;7.22;4.47;;;;;;;;;;4880874;29;20169;-44
2021/06/21 00:16:58;;;;;;;6.80;4.45;;;;;;;;;;4880645;29;20124;-45
2021/06/21 00:19:23;;;;;;;9.93;4.45;;;;;;;;;;4880706;29;20029;-44
2021/06/21 00:21:49;;;;;;;8.38;4.75;;;;;;;;;;4880668;29;20391;-44
2021/06/21 00:24:19;;;;;;;9.75;4.40;;;;;;;;;;4880874;29;20473;-44
2021/06/21 00:26:45;;;;;;;8.95;3.65;;;;;;;;;;4880940;29;20040;-44
2021/06/21 00:29:10;;;;;;;4.38;3.80;;;;;;;;;;4880683;29;20469;-44
2021/06/21 00:31:35;;;;;;;10.18;5.00;;;;;;;;;;4880586;29;20491;-44
2021/06/21 00:34:01;;;;;;;8.10;3.60;;;;;;;;;;4880352;29;20131;-45
2021/06/21 00:36:26;;;;;;;5.82;4.15;;;;;;;;;;4880464;29;20179;-44
2021/06/21 00:38:51;;;;;;;5.68;4.28;;;;;;;;;;4880049;29;20053;-44
2021/06/21 00:41:17;;;;;;;14.65;4.43;;;;;;;;;;4880633;29;20029;-44
2021/06/21 00:43:42;;;;;;;12.20;4.15;;;;;;;;;;4878951;29;20033;-44
2021/06/21 00:46:07;;;;;;;4.57;4.05;;;;;;;;;;4880142;29;20437;-44
2021/06/21 00:48:33;;;;;;;5.50;4.32;;;;;;;;;;4880495;29;20035;-44
2021/06/21 00:50:58;;;;;;;7.53;4.43;;;;;;;;;;4880415;29;20487;-44
2021/06/21 00:53:24;;;;;;;7.05;3.83;;;;;;;;;;4880131;29;20528;-45
2021/06/21 00:55:49;;;;;;;9.45;4.25;;;;;;;;;;4880145;29;20115;-44
2021/06/21 00:58:14;;;;;;;6.47;4.05;;;;;;;;;;4880203;29;20028;-44
2021/06/21 01:00:40;;;;;;;12.52;3.72;;;;;;;;;;4879986;29;20109;-44
2021/06/21 01:03:05;;;;;;;9.18;4.47;;;;;;;;;;4879841;29;20385;-44
2021/06/21 01:05:35;;;;;;;8.20;4.40;;;;;;;;;;4878668;29;20033;-45
2021/06/21 01:08:00;;;;;;;5.28;4.07;;;;;;;;;;4879741;29;20052;-45
2021/06/21 01:10:26;;;;;;;5.10;4.00;;;;;;;;;;4880150;29;20033;-44
2021/06/21 01:12:54;;;;;;;7.90;4.22;;;;;;;;;;4879218;29;20465;-45
2021/06/21 01:15:24;;;;;;;8.63;4.38;;;;;;;;;;4879703;29;20104;-44
2021/06/21 01:18:10;;;;;;;7.60;4.13;;;;;;;;;;4879936;29;20150;-44
2021/06/21 01:20:54;;;;;;;5.28;3.60;;;;;;;;;;4879675;29;20108;-45
2021/06/21 01:23:38;;;;;;;5.13;4.63;;;;;;;;;;4878334;29;20097;-44
2021/06/21 01:26:21;;;;;;;10.70;4.45;;;;;;;;;;4879529;29;20484;-44
2021/06/21 01:29:06;;;;;;;8.32;4.20;;;;;;;;;;4879436;29;20120;-45
2021/06/21 01:31:40;;;;;;;7.70;4.65;;;;;;;;;;4879562;29;20029;-44
2021/06/21 01:34:05;;;;;;;8.25;4.03;;;;;;;;;;4879363;29;20041;-45
2021/06/21 01:36:31;;;;;;;9.32;4.60;;;;;;;;;;4879402;29;20017;-45
2021/06/21 01:38:59;;;;;;;6.97;4.00;;;;;;;;;;4879097;29;20053;-45
2021/06/21 01:41:26;;;;;;;8.13;3.65;;;;;;;;;;4879560;29;20035;-45
2021/06/21 01:43:53;;;;;;;6.72;4.40;;;;;;;;;;4879364;29;20041;-44
2021/06/21 01:46:19;;;;;;;5.43;4.35;;;;;;;;;;4879512;29;20029;-45
2021/06/21 01:48:46;;;;;;;5.78;4.55;;;;;;;;;;4879239;29;20049;-45
2021/06/21 01:51:12;;;;;;;8.88;4.68;;;;;;;;;;4878979;29;20528;-44
2021/06/21 01:53:38;;;;;;;12.73;4.95;;;;;;;;;;4879167;29;20040;-44
2021/06/21 01:56:14;;;;;;;5.28;4.22;;;;;;;;;;4879282;29;20027;-45
2021/06/21 01:58:40;;;;;;;7.93;4.30;;;;;;;;;;4878939;29;20033;-44
2021/06/21 02:01:14;;;;;;;5.68;4.32;;;;;;;;;;4879058;29;20563;-45
2021/06/21 02:03:43;;;;;;;5.35;4.35;;;;;;;;;;4878860;29;20190;-44
2021/06/21 02:06:10;;;;;;;6.25;4.72;;;;;;;;;;4878811;29;20153;-45
2021/06/21 02:08:36;;;;;;;10.50;5.03;;;;;;;;;;4877594;29;20104;-45
2021/06/21 02:11:02;;;;;;;11.45;4.57;;;;;;;;;;4878792;29;20017;-44
2021/06/21 02:13:28;;;;;;;6.65;3.95;;;;;;;;;;4879117;29;20125;-46
2021/06/21 02:15:54;;;;;;;7.55;4.82;;;;;;;;;;4878714;29;20362;-44
2021/06/21 02:18:20;;;;;;;6.63;4.78;;;;;;;;;;4879024;29;20120;-45
2021/06/21 02:20:46;;;;;;;5.68;3.85;;;;;;;;;;4878948;29;20045;-44
2021/06/21 02:23:12;;;;;;;9.40;4.07;;;;;;;;;;4878549;29;20148;-45
2021/06/21 02:25:38;;;;;;;13.63;4.93;;;;;;;;;;4878764;29;20206;-46
2021/06/21 02:28:03;;;;;;;11.18;4.30;;;;;;;;;;4878569;29;20388;-45
2021/06/21 02:30:29;;;;;;;8.77;3.70;;;;;;;;;;4878609;29;20025;-45
2021/06/21 02:32:55;;;;;;;7.05;4.00;;;;;;;;;;4878537;29;20033;-45
2021/06/21 02:35:20;;;;;;;9.30;4.00;;;;;;;;;;4878639;29;20485;-44
2021/06/21 02:37:46;;;;;;;6.07;3.80;;;;;;;;;;4878436;29;20053;-45
2021/06/21 02:40:13;;;;;;;7.43;3.88;;;;;;;;;;4878327;29;20612;-44
2021/06/21 02:42:39;;;;;;;10.23;4.35;;;;;;;;;;4877468;29;20049;-45
2021/06/21 02:45:05;;;;;;;10.77;4.50;;;;;;;;;;4878396;29;20060;-45
2021/06/21 02:47:30;;;;;;;6.95;4.25;;;;;;;;;;4878346;29;20060;-45
2021/06/21 02:49:55;;;;;;;7.97;4.07;;;;;;;;;;4878371;29;20043;-44
2021/06/21 02:52:30;;;;;;;6.63;4.10;;;;;;;;;;4877142;29;20035;-45
2021/06/21 02:55:08;;;;;;;4.97;3.65;;;;;;;;;;4878309;29;20100;-45
2021/06/21 02:57:40;;;;;;;6.32;3.95;;;;;;;;;;4878619;29;20064;-45
2021/06/21 03:00:06;;;;;;;10.45;4.25;;;;;;;;;;4878552;29;20037;-46
2021/06/21 03:02:32;;;;;;;7.18;4.05;;;;;;;;;;4878111;29;20040;-44
2021/06/21 03:04:58;;;;;;;8.18;4.20;;;;;;;;;;4878285;29;20029;-44
2021/06/21 03:07:24;;;;;;;7.03;4.03;;;;;;;;;;4877123;29;20036;-45
2021/06/21 03:09:51;;;;;;;10.52;3.90;;;;;;;;;;4878103;29;20037;-44
2021/06/21 03:12:23;;;;;;;6.47;4.72;;;;;;;;;;4878481;29;20033;-45
2021/06/21 03:14:49;;;;;;;;;;;;;;;;;;4878918;29;20037;-46
2021/06/21 03:17:15;;;;;;;4.82;3.85;;;;;;;;;;4878420;29;20382;-44
2021/06/21 03:19:41;;;;;;;5.72;3.85;;;;;;;;;;4878203;29;20500;-44
2021/06/21 03:22:07;;;;;;;8.02;4.32;;;;;;;;;;4878233;29;20033;-45
2021/06/21 03:24:32;;;;;;;7.68;4.10;;;;;;;;;;4878157;29;20453;-45
2021/06/21 03:26:57;;;;;;;8.05;4.28;;;;;;;;;;4878049;29;20025;-45
2021/06/21 03:29:23;;;;;;;6.15;3.47;;;;;;;;;;4878029;29;20040;-45
2021/06/21 03:31:50;;;;;;;9.68;4.00;;;;;;;;;;4878087;29;20053;-45
2021/06/21 03:34:16;;;;;;;10.13;4.28;;;;;;;;;;4878208;29;20029;-44
2021/06/21 03:36:42;;;;;;;11.20;3.78;;;;;;;;;;4879384;29;20058;-45
2021/06/21 03:39:07;;;;;;;8.13;4.15;;;;;;;;;;4881202;29;20077;-46
2021/06/21 03:41:33;;;;;;;7.60;4.05;;;;;;;;;;4881617;29;20052;-44
2021/06/21 03:43:58;;;;;;;10.15;4.03;;;;;;;;;;4881442;29;20645;-44
2021/06/21 03:46:24;;;;;;;9.88;4.43;;;;;;;;;;4881618;29;20029;-44
2021/06/21 03:48:49;;;;;;;10.73;4.30;;;;;;;;;;4881532;29;20436;-45
2021/06/21 03:51:14;;;;;;;8.80;4.40;;;;;;;;;;4881202;29;20021;-44
2021/06/21 03:53:40;;;;;;;6.78;4.32;;;;;;;;;;4881495;29;20394;-45
2021/06/21 03:56:05;;;;;;;7.10;4.13;;;;;;;;;;4881339;29;20021;-44
2021/06/21 03:58:30;;;;;;;8.20;4.07;;;;;;;;;;4879798;29;20112;-44
2021/06/21 04:00:56;;;;;;;7.93;3.95;;;;;;;;;;4881299;29;20490;-44
2021/06/21 04:03:23;;;;;;;11.15;4.70;;;;;;;;;;4881249;29;20512;-44
2021/06/21 04:05:49;;;;;;;9.13;4.25;;;;;;;;;;4880938;29;20174;-45
2021/06/21 04:08:16;;;;;;;4.53;4.13;;;;;;;;;;4880879;29;20112;-44
2021/06/21 04:10:42;;;;;;;5.63;3.92;;;;;;;;;;4881194;29;20039;-44
2021/06/21 04:13:08;;;;;;;9.45;4.60;;;;;;;;;;4880718;29;20040;-45
2021/06/21 04:15:33;;;;;;;6.97;4.43;;;;;;;;;;4880821;29;20032;-45
2021/06/21 04:17:59;;;;;;;4.70;4.18;;;;;;;;;;4880602;29;20041;-45
2021/06/21 04:20:25;;;;;;;7.22;3.95;;;;;;;;;;4880731;29;20021;-45
2021/06/21 04:22:50;;;;;;;5.43;4.00;;;;;;;;;;4880899;29;20548;-44
2021/06/21 04:25:16;;;;;;;7.60;4.38;;;;;;;;;;4880834;29;20473;-44
2021/06/21 04:27:42;;;;;;;7.47;4.38;;;;;;;;;;4880843;29;20060;-44
2021/06/21 04:30:12;;;;;;;9.68;4.85;;;;;;;;;;4879319;29;20045;-44
2021/06/21 04:32:37;;;;;;;10.38;4.35;;;;;;;;;;4880539;29;20037;-44
2021/06/21 04:35:04;;;;;;;5.35;4.28;;;;;;;;;;4880322;29;20392;-44
2021/06/21 04:37:29;;;;;;;6.78;4.65;;;;;;;;;;4880537;29;20109;-45
2021/06/21 04:39:55;;;;;;;6.30;4.47;;;;;;;;;;4880300;29;20479;-44
2021/06/21 04:42:20;;;;;;;7.45;4.72;;;;;;;;;;4880451;29;20483;-44
2021/06/21 04:44:46;;;;;;;9.18;4.45;;;;;;;;;;4880474;29;20108;-44
2021/06/21 04:47:12;;;;;;;13.52;5.03;;;;;;;;;;4880068;29;20037;-44
2021/06/21 04:49:37;;;;;;;5.47;4.50;;;;;;;;;;4879201;29;20025;-44
2021/06/21 04:52:06;;;;;;;7.90;3.97;;;;;;;;;;4878837;29;20048;-44
2021/06/21 04:54:31;;;;;;;10.38;4.95;;;;;;;;;;4880358;29;20384;-45
2021/06/21 04:56:56;;;;;;;6.10;4.43;;;;;;;;;;4880224;29;20033;-44
2021/06/21 04:59:22;;;;;;;8.93;4.55;;;;;;;;;;4879961;29;20020;-44
2021/06/21 05:01:47;;;;;;;5.75;3.85;;;;;;;;;;4878625;29;20026;-46
2021/06/21 05:04:12;;;;;;;5.68;4.43;;;;;;;;;;4880122;29;20445;-44
2021/06/21 05:06:38;;;;;;;9.52;3.88;;;;;;;;;;4879884;29;20119;-44
2021/06/21 05:09:04;;;;;;;9.68;4.57;;;;;;;;;;4879931;29;20406;-44
2021/06/21 05:11:30;;;;;;;6.30;4.45;;;;;;;;;;4880063;29;20100;-44
2021/06/21 05:13:56;;;;;;;6.63;4.13;;;;;;;;;;4879964;29;20052;-44
2021/06/21 05:16:21;;;;;;;4.53;4.03;;;;;;;;;;4880043;29;20396;-45
2021/06/21 05:18:46;;;;;;;5.18;3.92;;;;;;;;;;4879894;29;20503;-45
2021/06/21 05:21:12;;;;;;;11.77;4.38;;;;;;;;;;4878638;29;20025;-44
2021/06/21 05:23:37;;;;;;;8.70;4.07;;;;;;;;;;4879837;29;20477;-45
2021/06/21 05:26:03;;;;;;;10.35;3.72;;;;;;;;;;4879441;29;20037;-43
2021/06/21 05:28:28;;;;;;;9.38;4.30;;;;;;;;;;4879564;29;20021;-44
2021/06/21 05:30:53;;;;;;;10.25;3.63;;;;;;;;;;4879404;29;20116;-44
2021/06/21 05:33:19;;;;;;;8.27;3.88;;;;;;;;;;4879318;29;20025;-44
2021/06/21 05:35:44;;;;;;;5.47;3.97;;;;;;;;;;4879734;29;20089;-44
2021/06/21 05:38:09;;;;;;;10.10;4.38;;;;;;;;;;4879053;29;20480;-44
2021/06/21 05:40:35;;;;;;;7.60;3.85;;;;;;;;;;4879343;29;20112;-44
2021/06/21 05:43:00;;;;;;;8.40;4.80;;;;;;;;;;4879121;29;20033;-44
2021/06/21 05:45:25;;;;;;;7.93;4.32;;;;;;;;;;4878003;29;20028;-44
2021/06/21 05:47:51;;;;;;;6.22;4.20;;;;;;;;;;4879500;29;20029;-43
2021/06/21 05:50:16;;;;;;;5.35;4.13;;;;;;;;;;4879069;29;20033;-44
2021/06/21 05:52:42;;;;;;;7.10;4.43;;;;;;;;;;4879319;29;20020;-44
2021/06/21 05:55:08;;;;;;;10.15;5.50;;;;;;;;;;4879030;29;20488;-44
2021/06/21 05:57:33;;;;;;;9.10;6.47;;;;;;;;;;4877742;29;20017;-44
2021/06/21 05:59:59;;;;;;;8.95;5.53;;;;;;;;;;4878652;29;20093;-45
2021/06/21 06:02:25;;;;;;;10.48;5.38;;;;;;;;;;4893304;29;20032;-45
2021/06/21 06:04:51;;;;;;;8.10;5.95;;;;;;;;;;4877710;29;20047;-45
2021/06/21 06:07:17;;;;;;;11.07;5.80;;;;;;;;;;4878490;29;20465;-44
2021/06/21 06:09:44;;;;;;;8.45;6.00;;;;;;;;;;4878861;29;20453;-45
2021/06/21 06:12:09;;;;;;;12.73;5.40;;;;;;;;;;4878749;29;20473;-45
2021/06/21 06:14:34;;;;;;;15.68;6.38;;;;;;;;;;4877615;29;20124;-46
2021/06/21 06:17:00;;;;;;;13.90;6.55;;;;;;;;;;4878711;29;20104;-44
2021/06/21 06:19:25;;;;;;;9.80;6.43;;;;;;;;;;4878747;29;20115;-44
2021/06/21 06:21:51;;;;;;;10.80;6.50;;;;;;;;;;4878636;29;20025;-44
2021/06/21 06:24:16;;;;;;;13.02;5.53;;;;;;;;;;4878670;29;20067;-45
2021/06/21 06:26:43;;;;;;;12.27;5.70;;;;;;;;;;4878937;29;20021;-44
2021/06/21 06:29:15;;;;;;;9.50;5.03;;;;;;;;;;4878651;29;20037;-44
2021/06/21 06:31:48;;;;;;;11.43;5.55;;;;;;;;;;4877331;29;20037;-45
2021/06/21 06:34:14;;;;;;;14.27;5.97;;;;;;;;;;4878669;29;20562;-44
2021/06/21 06:36:39;;;;;;;10.50;5.20;;;;;;;;;;4878644;29;20025;-44
2021/06/21 06:39:05;;;;;;;10.48;5.00;;;;;;;;;;4877028;29;20049;-44
2021/06/21 06:41:31;;;;;;;13.30;4.88;;;;;;;;;;4878480;29;20040;-44
2021/06/21 06:43:56;;;;;;;10.32;5.30;;;;;;;;;;4878329;29;20037;-44
2021/06/21 06:46:22;;;;;;;13.43;5.45;;;;;;;;;;4878532;29;20025;-44
2021/06/21 06:48:47;;;;;;;9.00;4.53;;;;;;;;;;4878435;29;20029;-44
2021/06/21 06:51:12;;;;;;;9.73;4.15;;;;;;;;;;4877084;29;20446;-43
2021/06/21 06:53:44;;;;;;;14.07;4.75;;;;;;;;;;4878442;29;20429;-44
2021/06/21 06:58:56;;;;;;;7.72;4.75;;;;;;;;;;4878390;29;20434;-45
2021/06/21 07:01:21;;;;;;;9.82;4.88;;;;;;;;;;4878252;29;20032;-43
2021/06/21 07:03:48;;;;;;;9.98;4.30;;;;;;;;;;4878459;29;20033;-44
2021/06/21 07:06:13;;;;;;;9.88;4.43;;;;;;;;;;4878550;29;20362;-44
2021/06/21 07:08:39;;;;;;;7.63;4.40;;;;;;;;;;4878514;29;20097;-44
2021/06/21 07:11:04;;;;;;;7.25;4.30;;;;;;;;;;4878532;29;20071;-43
2021/06/21 07:13:29;;;;;;;7.45;4.90;;;;;;;;;;4881921;29;20492;-44
2021/06/21 07:15:55;;;;;;;11.63;5.03;;;;;;;;;;4881840;29;20017;-43
2021/06/21 07:18:20;;;;;;;12.32;4.75;;;;;;;;;;4881728;29;20048;-43
2021/06/21 07:20:45;;;;;;;5.45;4.60;;;;;;;;;;4881807;29;20021;-44
2021/06/21 07:23:11;;;;;;;12.10;5.07;;;;;;;;;;4881610;29;20041;-43
2021/06/21 07:25:36;;;;;;;8.75;5.10;;;;;;;;;;4881726;29;20121;-44
2021/06/21 07:28:01;;;;;;;12.13;5.50;;;;;;;;;;4881796;29;20499;-44
2021/06/21 07:30:27;;;;;;;10.52;5.18;;;;;;;;;;4881705;29;20433;-44
2021/06/21 07:32:53;;;;;;;13.23;4.97;;;;;;;;;;4881668;29;20081;-44
2021/06/21 07:35:18;;;;;;;12.52;5.03;;;;;;;;;;4881507;29;20032;-48
2021/06/21 07:37:44;;;;;;;6.35;4.78;;;;;;;;;;4881574;29;20056;-45
2021/06/21 07:40:09;;;;;;;9.95;4.57;;;;;;;;;;4881421;29;20384;-44
2021/06/21 07:42:35;;;;;;;11.07;5.05;;;;;;;;;;4880105;29;20404;-46
2021/06/21 07:45:00;;;;;;;8.32;5.00;;;;;;;;;;4881317;29;20017;-44
2021/06/21 07:47:25;;;;;;;7.82;4.25;;;;;;;;;;4881514;29;20063;-44
2021/06/21 07:49:51;;;;;;;5.10;3.83;;;;;;;;;;4881664;29;20024;-44
2021/06/21 07:52:16;;;;;;;10.32;4.80;;;;;;;;;;4881155;29;20029;-44
2021/06/21 07:54:42;;;;;;;5.60;3.92;;;;;;;;;;4881435;29;20025;-44
2021/06/21 07:57:07;;;;;;;13.60;5.00;;;;;;;;;;4881400;29;20553;-44
2021/06/21 07:59:33;;;;;;;9.55;4.00;;;;;;;;;;4881308;29;20401;-45
2021/06/21 08:01:58;;;;;;;5.80;3.85;;;;;;;;;;4881219;29;20128;-44
2021/06/21 08:04:23;;;;;;;10.70;3.78;;;;;;;;;;4881089;29;20059;-44
2021/06/21 08:06:49;;;;;;;12.40;4.25;;;;;;;;;;4880998;29;20041;-44
2021/06/21 08:09:14;;;;;;;8.18;3.80;;;;;;;;;;4880762;29;20029;-44
2021/06/21 08:11:39;;;;;;;6.90;3.60;;;;;;;;;;4880907;29;20029;-44
2021/06/21 08:14:05;;;;;;;9.48;4.07;;;;;;;;;;4880783;29;20025;-44
2021/06/21 08:16:31;;;;;;;9.45;4.43;;;;;;;;;;4880857;29;20041;-44
2021/06/21 08:18:57;;;;;;;8.90;4.07;;;;;;;;;;4880780;29;20021;-44
2021/06/21 08:21:22;;;;;;;11.18;4.60;;;;;;;;;;4880947;29;20040;-43
2021/06/21 08:23:48;;;;;;;8.38;3.65;;;;;;;;;;4880803;29;20040;-44
2021/06/21 08:26:13;;;;;;;9.95;4.65;;;;;;;;;;4880558;29;20032;-43
2021/06/21 08:28:38;;;;;;;10.00;3.58;;;;;;;;;;4880816;29;20028;-43
2021/06/21 08:31:04;;;;;;;5.22;3.88;;;;;;;;;;4880712;29;20033;-43
2021/06/21 08:33:29;;;;;;;13.65;3.88;;;;;;;;;;4879359;29;20064;-44
2021/06/21 08:35:54;;;;;;;5.63;3.30;;;;;;;;;;4880491;29;20025;-43
2021/06/21 08:38:20;;;;;;;10.50;3.30;;;;;;;;;;4880258;29;20419;-43
2021/06/21 08:40:46;;;;;;;9.25;3.30;;;;;;;;;;4880445;29;20036;-43
2021/06/21 08:43:12;;;;;;;10.27;3.83;;;;;;;;;;4880093;29;20119;-43
2021/06/21 08:45:38;;;;;;;5.32;3.70;;;;;;;;;;4880365;29;20021;-43
2021/06/21 08:48:08;;;;;;;15.80;3.58;;;;;;;;;;4880164;29;20489;-44
2021/06/21 08:50:34;;;;;;;14.98;4.38;;;;;;;;;;4880190;29;20033;-43
2021/06/21 08:52:59;;;;;;;7.70;3.10;;;;;;;;;;4880165;29;20440;-43
2021/06/21 08:55:25;;;;;;;12.65;3.35;;;;;;;;;;4880216;29;20029;-43
2021/06/21 08:57:50;;;;;;;7.10;3.25;;;;;;;;;;4880323;29;20060;-44
2021/06/21 09:00:17;;;;;;;12.93;2.80;;;;;;;;;;4878729;29;20033;-44
2021/06/21 09:02:43;;;;;;;5.50;2.90;;;;;;;;;;4880201;29;20037;-44
2021/06/21 09:05:09;;;;;;;11.13;2.95;;;;;;;;;;4880162;29;20136;-45
2021/06/21 09:07:35;;;;;;;13.55;3.15;;;;;;;;;;4880099;29;20025;-44
2021/06/21 09:10:05;;;;;;;11.65;3.63;;;;;;;;;;4879776;29;20547;-44
2021/06/21 09:12:31;;;;;;;8.65;4.47;;;;;;;;;;4879739;29;20037;-44
2021/06/21 09:14:59;;;;;;;7.97;3.00;;;;;;;;;;4879769;29;20033;-44
2021/06/21 09:17:25;;;;;;;7.00;3.47;;;;;;;;;;4879791;29;20021;-44
2021/06/21 09:19:55;;;;;;;6.85;3.50;;;;;;;;;;4878413;29;20119;-45
2021/06/21 09:22:24;;;;;;;15.77;3.42;;;;;;;;;;4878304;29;20044;-44
2021/06/21 09:24:50;;;;;;;15.73;3.70;;;;;;;;;;4879581;29;20052;-44
2021/06/21 09:27:19;;;;;;;11.40;3.83;;;;;;;;;;4879397;29;20021;-44
2021/06/21 09:29:44;;;;;;;6.82;3.05;;;;;;;;;;4879822;29;20029;-44
2021/06/21 09:32:10;;;;;;;8.55;3.45;;;;;;;;;;4879228;29;20028;-44
2021/06/21 09:34:38;;;;;;;15.95;4.30;;;;;;;;;;4879021;29;20109;-44
2021/06/21 09:37:08;;;;;;;17.80;4.45;;;;;;;;;;4879345;29;20021;-44
2021/06/21 09:39:35;;;;;;;6.40;2.20;;;;;;;;;;4879162;29;20144;-44
2021/06/21 09:42:03;;;;;;;10.70;3.97;;;;;;;;;;4879131;29;20084;-44
2021/06/21 09:44:29;;;;;;;12.70;3.42;;;;;;;;;;4879258;29;20112;-45
2021/06/21 09:47:13;;;;;;;11.55;4.32;;;;;;;;;;4879267;29;20027;-45
2021/06/21 09:49:50;;;;;;;8.48;3.83;;;;;;;;;;4879481;29;20109;-44
2021/06/21 09:52:31;;;;;;;12.50;3.83;;;;;;;;;;4879109;29;20036;-44
2021/06/21 09:54:56;;;;;;;16.85;4.22;;;;;;;;;;4879425;29;20100;-44
2021/06/21 09:57:24;;;;;;;6.68;3.05;;;;;;;;;;4879157;29;20108;-44
2021/06/21 09:59:50;;;;;;;18.52;5.20;;;;;;;;;;4879058;29;20033;-44
2021/06/21 10:02:22;;;;;;;4.38;2.67;;;;;;;;;;4878754;29;20036;-44
2021/06/21 10:04:47;;;;;;;13.30;3.97;;;;;;;;;;4878931;29;20047;-44
2021/06/21 10:07:45;;;;;;;7.90;3.83;;;;;;;;;;4879134;29;20021;-44
2021/06/21 10:10:11;;;;;;;7.20;3.63;;;;;;;;;;4887626;29;20048;-44
2021/06/21 10:12:40;;;;;;;8.50;3.60;;;;;;;;;;4878893;29;20037;-44
2021/06/21 10:15:06;;;;;;;9.07;3.88;;;;;;;;;;4878743;29;20477;-45
2021/06/21 10:17:31;;;;;;;11.40;3.63;;;;;;;;;;4879023;29;20028;-45
2021/06/21 10:19:57;;;;;;;6.32;3.78;;;;;;;;;;4878957;29;20051;-44
2021/06/21 10:22:23;;;;;;;18.73;4.20;;;;;;;;;;4878649;29;20425;-44
2021/06/21 10:24:52;;;;;;;10.18;4.40;;;;;;;;;;4878687;29;20033;-44
2021/06/21 10:27:20;;;;;;;19.40;4.65;;;;;;;;;;4878808;29;20047;-45
2021/06/21 10:29:46;;;;;;;8.18;4.57;;;;;;;;;;4877342;29;20036;-45
2021/06/21 10:32:11;;;;;;;11.68;3.25;;;;;;;;;;4878474;29;20032;-44
2021/06/21 10:34:37;;;;;;;21.02;4.50;;;;;;;;;;4878651;29;20051;-43
2021/06/21 10:37:06;;;;;;;8.05;3.20;;;;;;;;;;4878720;29;20032;-44
2021/06/21 10:39:35;;;;;;;15.52;3.70;;;;;;;;;;4878408;29;20056;-43
2021/06/21 10:42:07;;;;;;;11.23;3.63;;;;;;;;;;4878456;29;20566;-44
2021/06/21 10:44:35;;;;;;;16.27;5.00;;;;;;;;;;4878802;29;20392;-44
2021/06/21 10:47:19;;;;;;;18.27;3.75;;;;;;;;;;4880308;29;20032;-45
2021/06/21 10:49:55;;;;;;;16.52;4.43;;;;;;;;;;4882493;29;20029;-43
2021/06/21 10:52:33;;;;;;;13.73;4.18;;;;;;;;;;4882165;29;20131;-44
2021/06/21 10:55:17;;;;;;;13.38;4.32;;;;;;;;;;4882351;29;20025;-43
2021/06/21 10:57:42;;;;;;;17.00;3.35;;;;;;;;;;4882172;29;20433;-44
2021/06/21 11:00:14;;;;;;;10.18;2.63;;;;;;;;;;4882139;29;20021;-43
2021/06/21 11:02:40;;;;;;;25.92;3.72;;;;;;;;;;4882381;29;20391;-43
2021/06/21 11:05:06;;;;;;;12.25;4.00;;;;;;;;;;4880805;29;20108;-43
2021/06/21 11:07:32;;;;;;;11.73;3.90;;;;;;;;;;4882030;29;20440;-43
2021/06/21 11:09:58;;;;;;;20.70;4.03;;;;;;;;;;4882057;29;20028;-44
2021/06/21 11:12:30;;;;;;;14.10;4.65;;;;;;;;;;4881831;29;20040;-44
2021/06/21 11:15:08;;;;;;;8.43;3.67;;;;;;;;;;4881909;29;20041;-44
2021/06/21 11:18:01;;;;;;;24.27;4.60;;;;;;;;;;4882114;29;20029;-44
2021/06/21 11:20:26;;;;;;;8.32;3.45;;;;;;;;;;4882237;29;20496;-44
2021/06/21 11:22:54;;;;;;;20.40;3.78;;;;;;;;;;4881970;29;20044;-44
2021/06/21 11:25:20;;;;;;;25.77;5.00;;;;;;;;;;4881737;29;20104;-44
2021/06/21 11:27:45;;;;;;;11.32;3.22;;;;;;;;;;4881624;29;20036;-45
2021/06/21 11:30:29;;;;;;;13.57;3.33;;;;;;;;;;4881800;29;20041;-44
2021/06/21 11:32:59;;;;;;;15.57;3.25;;;;;;;;;;4881866;29;20087;-44
2021/06/21 11:35:43;;;;;;;17.20;3.38;;;;;;;;;;4881430;29;20132;-44
2021/06/21 11:38:21;;;;;;;11.15;3.28;;;;;;;;;;4881227;29;20136;-44
2021/06/21 11:40:47;;;;;;;14.18;3.60;;;;;;;;;;4881728;29;20132;-44
2021/06/21 11:43:13;;;;;;;21.73;3.75;;;;;;;;;;4881190;29;20123;-44
2021/06/21 11:45:47;;;;;;;20.25;4.05;;;;;;;;;;4881437;29;20025;-44
2021/06/21 11:48:26;;;;;;;15.00;3.63;;;;;;;;;;4881205;29;20504;-44
2021/06/21 11:50:53;;;;;;;6.00;2.78;;;;;;;;;;4880156;29;20068;-44
2021/06/21 11:53:19;;;;;;;17.35;3.72;;;;;;;;;;4881193;29;20040;-44
2021/06/21 11:55:45;;;;;;;15.05;3.67;;;;;;;;;;4881343;29;20033;-44
2021/06/21 11:58:10;;;;;;;23.60;3.53;;;;;;;;;;4880544;29;20017;-45
2021/06/21 12:00:36;;;;;;;14.00;2.95;;;;;;;;;;4881177;29;20048;-45
2021/06/21 12:03:08;;;;;;;12.15;3.95;;;;;;;;;;4880905;29;20065;-45
2021/06/21 12:05:34;;;;;;;15.38;3.30;;;;;;;;;;4881062;29;20029;-44
2021/06/21 12:07:59;;;;;;;17.08;3.55;;;;;;;;;;4880940;29;20385;-44
2021/06/21 12:10:25;;;;;;;16.70;4.15;;;;;;;;;;4879908;29;20477;-44
2021/06/21 12:12:53;;;;;;;10.13;3.28;;;;;;;;;;4880929;29;20108;-44
2021/06/21 12:15:26;;;;;;;15.57;4.28;;;;;;;;;;4879603;29;20047;-45
2021/06/21 12:17:54;;;;;;;9.70;3.63;;;;;;;;;;4880747;29;20037;-44
2021/06/21 12:20:19;;;;;;;12.27;3.72;;;;;;;;;;4881009;29;20175;-44
2021/06/21 12:22:57;;;;;;;18.55;4.28;;;;;;;;;;4880667;29;20049;-44
2021/06/21 12:25:32;;;;;;;12.05;3.22;;;;;;;;;;4880617;29;20044;-44
2021/06/21 12:28:14;;;;;;;18.20;3.00;;;;;;;;;;4880869;29;20101;-44
2021/06/21 12:30:51;;;;;;;18.67;4.10;;;;;;;;;;4880642;29;20497;-44
2021/06/21 12:33:28;;;;;;;12.38;3.13;;;;;;;;;;4880457;29;20055;-44
2021/06/21 12:36:13;;;;;;;22.70;3.88;;;;;;;;;;4880592;29;20084;-44
2021/06/21 12:38:46;;;;;;;14.27;3.25;;;;;;;;;;4880434;29;20111;-44
2021/06/21 12:41:16;;;;;;;11.55;2.75;;;;;;;;;;4880651;29;20381;-45
2021/06/21 12:43:51;;;;;;;12.15;2.42;;;;;;;;;;4880577;29;20041;-44
2021/06/21 12:49:53;;;;;;;15.90;2.97;;;;;;;;;;4880657;29;20506;-44
2021/06/21 12:52:20;;;;;;;11.77;3.25;;;;;;;;;;4880110;29;20076;-44
2021/06/21 12:54:46;;;;;;;19.02;3.50;;;;;;;;;;4880211;29;20043;-44
2021/06/21 12:57:12;;;;;;;16.92;3.95;;;;;;;;;;4880037;29;20029;-44
2021/06/21 12:59:41;;;;;;;14.35;2.67;;;;;;;;;;4880376;29;20029;-44
2021/06/21 13:02:17;;;;;;;24.30;3.22;;;;;;;;;;4880024;29;20488;-44
2021/06/21 13:04:53;;;;;;;17.40;3.45;;;;;;;;;;4880337;29;20159;-43
2021/06/21 13:07:23;;;;;;;28.42;4.10;;;;;;;;;;4879867;29;20036;-44
2021/06/21 13:09:52;;;;;;;3.75;1.77;;;;;;;;;;4879072;29;20350;-44
2021/06/21 13:12:28;;;;;;;11.32;2.83;;;;;;;;;;4879891;29;20040;-44
2021/06/21 13:15:08;;;;;;;13.52;2.10;;;;;;;;;;4879768;29;20040;-44
2021/06/21 13:17:34;;;;;;;22.17;2.97;;;;;;;;;;4878568;29;20492;-44
2021/06/21 13:20:10;;;;;;;24.70;3.17;;;;;;;;;;4878437;29;20033;-44
2021/06/21 13:22:49;;;;;;;17.33;2.83;;;;;;;;;;4878407;29;20045;-44
2021/06/21 13:25:16;;;;;;;12.13;2.15;;;;;;;;;;4879670;29;20112;-44
2021/06/21 13:27:54;;;;;;;5.80;1.42;;;;;;;;;;4879573;29;20516;-44
2021/06/21 13:30:27;;;;;;;30.98;2.95;;;;;;;;;;4879538;29;20047;-44
2021/06/21 13:32:55;;;;;;;19.95;3.70;;;;;;;;;;4879509;29;20025;-44
2021/06/21 13:35:22;;;;;;;29.90;4.00;;;;;;;;;;4879597;29;20130;-44
2021/06/21 13:37:50;;;;;;;11.50;2.30;;;;;;;;;;4879434;29;20109;-44
2021/06/21 13:40:18;;;;;;;13.07;2.65;;;;;;;;;;4878443;29;20067;-44
2021/06/21 13:42:48;;;;;;;16.75;3.47;;;;;;;;;;4879219;29;20041;-44
2021/06/21 13:45:13;;;;;;;13.93;2.90;;;;;;;;;;4877948;29;20021;-44
2021/06/21 13:47:46;;;;;;;17.63;2.67;;;;;;;;;;4879262;29;20088;-44
2021/06/21 13:50:13;;;;;;;17.70;2.40;;;;;;;;;;4879089;29;20025;-44
2021/06/21 13:52:42;;;;;;;22.23;2.92;;;;;;;;;;4879176;29;20040;-44
2021/06/21 13:55:09;;;;;;;7.95;2.00;;;;;;;;;;4879337;29;20477;-44
2021/06/21 13:57:36;;;;;;;10.48;3.35;;;;;;;;;;4879029;29;20025;-49
2021/06/21 14:00:03;;;;;;;15.98;2.83;;;;;;;;;;4879379;29;20029;-45
2021/06/21 14:02:38;;;;;;;16.50;1.42;;;;;;;;;;4879020;29;20029;-44
2021/06/21 14:05:05;;;;;;;10.82;2.80;;;;;;;;;;4878945;29;20028;-44
2021/06/21 14:07:31;;;;;;;13.73;2.55;;;;;;;;;;4878999;29;20404;-44
2021/06/21 14:09:58;;;;;;;12.43;1.98;;;;;;;;;;4877582;29;20446;-44
2021/06/21 14:12:24;;;;;;;11.73;2.80;;;;;;;;;;4878783;29;20035;-44
2021/06/21 14:14:50;;;;;;;25.27;3.95;;;;;;;;;;4878873;29;20029;-44
2021/06/21 14:17:15;;;;;;;13.52;2.55;;;;;;;;;;4877474;29;20088;-44
2021/06/21 14:19:41;;;;;;;5.03;2.10;;;;;;;;;;4878774;29;20033;-44
2021/06/21 14:22:07;;;;;;;14.88;3.85;;;;;;;;;;4878513;29;20396;-44
2021/06/21 14:24:33;;;;;;;11.32;3.88;;;;;;;;;;4877502;29;20658;-44
2021/06/21 14:26:58;;;;;;;18.23;2.97;;;;;;;;;;4878728;29;20437;-44
2021/06/21 14:29:23;;;;;;;19.65;2.97;;;;;;;;;;4878904;29;20518;-44
2021/06/21 14:31:49;;;;;;;14.82;3.05;;;;;;;;;;4878889;29;20048;-44
2021/06/21 14:34:14;;;;;;;29.02;3.40;;;;;;;;;;4878557;29;20033;-45
2021/06/21 14:36:41;;;;;;;14.52;2.03;;;;;;;;;;4877892;29;20092;-46
2021/06/21 14:39:08;;;;;;;8.10;2.92;;;;;;;;;;4877977;29;20075;-45
2021/06/21 14:41:34;;;;;;;32.58;3.63;;;;;;;;;;4877840;29;20061;-44
2021/06/21 14:44:01;;;;;;;14.68;2.50;;;;;;;;;;4878288;29;20045;-45
2021/06/21 14:46:27;;;;;;;19.40;4.55;;;;;;;;;;4878407;29;20420;-44